createdAt,value
2023-01-02T00:00:15.802Z,13.96
2023-01-02T00:02:48.554Z,13.96
2023-01-02T00:05:17.100Z,13.95
2023-01-02T00:07:45.410Z,13.98
2023-01-02T00:10:14.109Z,13.99
2023-01-02T00:12:43.736Z,13.94
2023-01-02T00:15:14.033Z,13.95
2023-01-02T00:17:42.573Z,13.98
2023-01-02T00:20:11.624Z,13.95
2023-01-02T00:22:40.481Z,13.89
2023-01-02T00:25:28.370Z,13.86
2023-01-02T00:28:00.160Z,13.85
2023-01-02T00:30:35.732Z,13.87
2023-01-02T00:33:06.495Z,13.89
2023-01-02T00:35:35.078Z,13.91
2023-01-02T00:38:03.720Z,13.94
2023-01-02T00:40:33.330Z,13.94
2023-01-02T00:43:02.938Z,13.95
2023-01-02T00:45:32.775Z,13.97
2023-01-02T00:48:13.843Z,13.99
2023-01-02T00:50:42.604Z,13.97
2023-01-02T00:53:10.928Z,13.97
2023-01-02T00:56:03.340Z,13.99
2023-01-02T00:58:32.453Z,13.99
2023-01-02T01:01:04.963Z,13.96
2023-01-02T01:03:33.532Z,13.95
2023-01-02T01:06:08.329Z,13.94
2023-01-02T01:08:37.394Z,13.93
2023-01-02T01:11:09.429Z,13.95
2023-01-02T01:13:56.545Z,13.97
2023-01-02T01:16:27.417Z,13.93
2023-01-02T01:18:57.576Z,13.88
2023-01-02T01:21:26.036Z,13.91
2023-01-02T01:23:55.901Z,13.90
2023-01-02T01:26:30.021Z,13.88
2023-01-02T01:28:58.626Z,13.82
2023-01-02T01:31:28.761Z,13.72
2023-01-02T01:33:57.434Z,13.68
2023-01-02T01:36:29.968Z,13.60
2023-01-02T01:39:01.573Z,13.54
2023-01-02T01:41:30.466Z,13.54
2023-01-02T01:44:00.698Z,13.50
2023-01-02T01:46:35.289Z,13.48
2023-01-02T01:49:08.317Z,13.48
2023-01-02T01:51:43.143Z,13.46
2023-01-02T01:54:16.759Z,13.44
2023-01-02T01:56:48.979Z,13.44
2023-01-02T01:59:18.109Z,13.46
2023-01-02T02:01:50.412Z,13.47
2023-01-02T02:04:21.837Z,13.46
2023-01-02T02:06:54.665Z,13.47
2023-01-02T02:09:28.814Z,13.49
2023-01-02T02:11:57.479Z,13.52
2023-01-02T02:14:25.654Z,13.53
2023-01-02T02:17:02.143Z,13.57
2023-01-02T02:20:08.611Z,13.57
2023-01-02T02:23:10.816Z,13.53
2023-01-02T02:26:20.227Z,13.48
2023-01-02T02:29:15.145Z,13.42
2023-01-02T02:31:58.642Z,13.38
2023-01-02T02:34:37.007Z,13.33
2023-01-02T02:37:15.590Z,13.28
2023-01-02T02:39:55.933Z,13.23
2023-01-02T02:42:33.130Z,13.17
2023-01-02T02:45:11.459Z,13.11
2023-01-02T02:47:48.489Z,13.07
2023-01-02T02:50:24.650Z,13.03
2023-01-02T02:52:58.474Z,13.00
2023-01-02T02:55:31.711Z,13.00
2023-01-02T02:58:00.868Z,12.93
2023-01-02T03:00:29.191Z,12.90
2023-01-02T03:02:59.658Z,12.93
2023-01-02T03:05:35.035Z,12.93
2023-01-02T03:08:12.159Z,12.94
2023-01-02T03:10:48.239Z,12.94
2023-01-02T03:13:27.089Z,12.95
2023-01-02T03:16:06.446Z,12.92
2023-01-02T03:18:39.776Z,12.91
2023-01-02T03:21:11.799Z,12.82
2023-01-02T03:23:44.644Z,12.80
2023-01-02T03:26:14.647Z,12.77
2023-01-02T03:28:47.009Z,12.74
2023-01-02T03:31:20.380Z,12.77
2023-01-02T03:33:54.490Z,12.80
2023-01-02T03:36:25.697Z,12.80
2023-01-02T03:39:00.633Z,12.80
2023-01-02T03:41:34.551Z,12.77
2023-01-02T03:44:04.376Z,12.75
2023-01-02T03:46:35.875Z,12.71
2023-01-02T03:49:08.476Z,12.71
2023-01-02T03:51:37.235Z,12.68
2023-01-02T03:54:07.196Z,12.65
2023-01-02T03:56:49.671Z,12.63
2023-01-02T03:59:27.076Z,12.65
2023-01-02T04:02:01.360Z,12.68
2023-01-02T04:04:40.688Z,12.67
2023-01-02T04:07:15.630Z,12.68
2023-01-02T04:09:46.165Z,12.66
2023-01-02T04:12:17.797Z,12.62
2023-01-02T04:14:50.010Z,12.58
2023-01-02T04:17:21.720Z,12.51
2023-01-02T04:19:56.644Z,12.50
2023-01-02T04:22:29.277Z,12.48
2023-01-02T04:25:02.801Z,12.46
2023-01-02T04:27:36.371Z,12.44
2023-01-02T04:30:05.291Z,12.42
2023-01-02T04:32:42.841Z,12.39
2023-01-02T04:35:17.054Z,12.40
2023-01-02T04:37:47.100Z,12.42
2023-01-02T04:40:21.046Z,12.42
2023-01-02T04:42:49.232Z,12.42
2023-01-02T04:45:17.912Z,12.44
2023-01-02T04:47:46.514Z,12.43
2023-01-02T04:50:16.320Z,12.43
2023-01-02T04:52:44.887Z,12.43
2023-01-02T04:55:13.037Z,12.47
2023-01-02T04:57:41.077Z,12.51
2023-01-02T05:00:10.427Z,12.54
2023-01-02T05:02:39.445Z,12.58
2023-01-02T05:05:09.249Z,12.56
2023-01-02T05:07:39.721Z,12.55
2023-01-02T05:10:09.338Z,12.60
2023-01-02T05:12:39.154Z,12.60
2023-01-02T05:15:09.570Z,12.57
2023-01-02T05:17:41.867Z,12.62
2023-01-02T05:20:12.211Z,12.66
2023-01-02T05:22:59.591Z,12.66
2023-01-02T05:25:28.828Z,12.68
2023-01-02T05:27:57.301Z,12.70
2023-01-02T05:30:28.747Z,12.66
2023-01-02T05:32:57.335Z,12.65
2023-01-02T05:35:31.853Z,12.60
2023-01-02T05:38:02.493Z,12.51
2023-01-02T05:40:31.134Z,12.49
2023-01-02T05:43:00.092Z,12.43
2023-01-02T05:45:28.143Z,12.36
2023-01-02T05:47:57.008Z,12.29
2023-01-02T05:50:25.088Z,12.21
2023-01-02T05:52:53.279Z,12.18
2023-01-02T05:55:23.043Z,12.15
2023-01-02T05:57:56.497Z,12.08
2023-01-02T06:00:24.963Z,12.07
2023-01-02T06:02:53.253Z,11.98
2023-01-02T06:05:21.502Z,11.98
2023-01-02T06:07:50.048Z,11.92
2023-01-02T06:10:18.456Z,11.90
2023-01-02T06:12:48.062Z,11.89
2023-01-02T06:15:16.255Z,11.86
2023-01-02T06:17:44.532Z,11.83
2023-01-02T06:20:13.062Z,11.83
2023-01-02T06:22:41.340Z,11.80
2023-01-02T06:25:10.182Z,11.80
2023-01-02T06:27:38.258Z,11.77
2023-01-02T06:30:09.424Z,11.75
2023-01-02T06:32:37.411Z,11.74
2023-01-02T06:35:06.107Z,11.72
2023-01-02T06:37:34.216Z,11.72
2023-01-02T06:40:02.404Z,11.75
2023-01-02T06:42:32.703Z,11.80
2023-01-02T06:45:10.828Z,11.82
2023-01-02T06:47:39.561Z,11.85
2023-01-02T06:50:09.112Z,11.80
2023-01-02T06:52:37.679Z,11.83
2023-01-02T06:55:06.464Z,11.80
2023-01-02T06:57:34.519Z,11.78
2023-01-02T07:00:02.858Z,11.75
2023-01-02T07:02:32.558Z,11.72
2023-01-02T07:05:01.769Z,11.69
2023-01-02T07:07:30.315Z,11.70
2023-01-02T07:10:01.021Z,11.69
2023-01-02T07:12:30.569Z,11.70
2023-01-02T07:14:58.804Z,11.67
2023-01-02T07:17:27.593Z,11.69
2023-01-02T07:20:01.960Z,11.69
2023-01-02T07:22:31.029Z,11.70
2023-01-02T07:25:02.157Z,11.67
2023-01-02T07:27:33.751Z,11.72
2023-01-02T07:30:03.438Z,11.78
2023-01-02T07:32:32.096Z,11.84
2023-01-02T07:35:01.809Z,11.90
2023-01-02T07:37:30.039Z,11.93
2023-01-02T07:39:58.361Z,11.94
2023-01-02T07:42:26.602Z,11.94
2023-01-02T07:44:55.158Z,11.95
2023-01-02T07:47:23.387Z,11.93
2023-01-02T07:49:51.416Z,11.91
2023-01-02T07:52:21.061Z,11.89
2023-01-02T07:54:49.798Z,11.89
2023-01-02T07:57:18.117Z,11.90
2023-01-02T07:59:47.217Z,11.93
2023-01-02T08:02:15.553Z,11.95
2023-01-02T08:04:43.945Z,11.95
2023-01-02T08:07:12.178Z,11.94
2023-01-02T08:09:41.763Z,11.94
2023-01-02T08:12:10.048Z,11.91
2023-01-02T08:14:39.765Z,11.88
2023-01-02T08:17:08.258Z,11.83
2023-01-02T08:19:36.594Z,11.80
2023-01-02T08:22:06.854Z,11.77
2023-01-02T08:24:35.256Z,11.74
2023-01-02T08:27:05.158Z,11.71
2023-01-02T08:29:33.278Z,11.68
2023-01-02T08:32:05.324Z,11.69
2023-01-02T08:34:35.177Z,11.70
2023-01-02T08:37:03.227Z,11.69
2023-01-02T08:39:31.358Z,11.70
2023-01-02T08:41:59.562Z,11.72
2023-01-02T08:44:29.175Z,11.72
2023-01-02T08:46:57.369Z,11.74
2023-01-02T08:49:25.475Z,11.76
2023-01-02T08:51:53.718Z,11.78
2023-01-02T08:54:22.048Z,11.73
2023-01-02T08:56:50.332Z,11.70
2023-01-02T08:59:18.337Z,11.66
2023-01-02T09:01:50.887Z,11.59
2023-01-02T09:04:20.070Z,11.46
2023-01-02T09:06:48.197Z,11.37
2023-01-02T09:09:18.439Z,11.23
2023-01-02T09:11:50.776Z,11.17
2023-01-02T09:14:20.117Z,11.15
2023-01-02T09:16:48.763Z,11.16
2023-01-02T09:19:18.677Z,11.16
2023-01-02T09:21:49.466Z,11.12
2023-01-02T09:24:17.745Z,11.13
2023-01-02T09:26:46.877Z,11.11
2023-01-02T09:29:16.578Z,11.12
2023-01-02T09:31:45.092Z,11.11
2023-01-02T09:34:13.541Z,11.07
2023-01-02T09:36:43.284Z,11.03
2023-01-02T09:39:12.853Z,10.99
2023-01-02T09:41:46.502Z,10.93
2023-01-02T09:44:18.241Z,10.90
2023-01-02T09:46:50.932Z,10.87
2023-01-02T09:49:23.250Z,10.85
2023-01-02T09:51:52.862Z,10.78
2023-01-02T09:54:26.547Z,10.72
2023-01-02T09:57:12.867Z,10.67
2023-01-02T09:59:48.174Z,10.64
2023-01-02T10:02:29.004Z,10.63
2023-01-02T10:05:14.782Z,10.61
2023-01-02T10:07:52.193Z,10.61
2023-01-02T10:10:30.502Z,10.61
2023-01-02T10:13:05.995Z,10.64
2023-01-02T10:15:34.959Z,10.73
2023-01-02T10:18:15.204Z,10.81
2023-01-02T10:20:50.356Z,10.91
2023-01-02T10:23:25.251Z,10.98
2023-01-02T10:25:59.131Z,11.01
2023-01-02T10:28:35.535Z,11.02
2023-01-02T10:31:08.916Z,11.04
2023-01-02T10:33:45.568Z,11.06
2023-01-02T10:36:24.392Z,11.15
2023-01-02T10:38:55.341Z,11.27
2023-01-02T10:41:23.745Z,11.34
2023-01-02T10:43:57.425Z,11.45
2023-01-02T10:46:29.707Z,11.54
2023-01-02T10:48:58.939Z,11.67
2023-01-02T10:51:28.503Z,11.82
2023-01-02T10:54:07.072Z,12.02
2023-01-02T10:56:38.352Z,12.17
2023-01-02T10:59:23.251Z,12.29
2023-01-02T11:01:54.376Z,12.35
2023-01-02T11:04:25.638Z,12.35
2023-01-02T11:06:57.738Z,12.36
2023-01-02T11:09:29.711Z,12.41
2023-01-02T11:12:09.854Z,12.45
2023-01-02T11:14:39.118Z,12.52
2023-01-02T11:17:13.774Z,12.56
2023-01-02T11:19:44.172Z,12.67
2023-01-02T11:22:15.410Z,12.78
2023-01-02T11:25:00.355Z,12.83
2023-01-02T11:27:32.234Z,12.88
2023-01-02T11:30:01.381Z,12.92
2023-01-02T11:32:30.960Z,13.02
2023-01-02T11:35:02.467Z,13.08
2023-01-02T11:37:30.675Z,13.13
2023-01-02T11:40:02.629Z,13.21
2023-01-02T11:42:55.078Z,13.25
2023-01-02T11:45:23.594Z,13.30
2023-01-02T11:47:54.114Z,13.28
2023-01-02T11:50:25.753Z,13.32
2023-01-02T11:52:59.274Z,13.35
2023-01-02T11:55:39.127Z,13.41
2023-01-02T11:58:17.921Z,13.42
2023-01-02T12:00:50.415Z,13.43
2023-01-02T12:03:22.756Z,13.52
2023-01-02T12:06:14.420Z,13.58
2023-01-02T12:08:53.673Z,13.64
2023-01-02T12:11:42.050Z,13.67
2023-01-02T12:14:18.118Z,13.65
2023-01-02T12:16:57.354Z,13.62
2023-01-02T12:19:50.595Z,13.57
2023-01-02T12:22:42.441Z,13.55
2023-01-02T12:25:45.821Z,13.51
2023-01-02T12:28:32.068Z,13.59
2023-01-02T12:31:16.708Z,13.65
2023-01-02T12:33:53.793Z,13.75
2023-01-02T12:36:53.016Z,13.75
2023-01-02T12:39:50.630Z,13.69
2023-01-02T12:42:34.077Z,13.57
2023-01-02T12:45:03.617Z,13.47
2023-01-02T12:47:48.256Z,13.42
2023-01-02T12:50:37.483Z,13.43
2023-01-02T12:53:26.246Z,13.43
2023-01-02T12:56:06.880Z,13.46
2023-01-02T12:58:49.781Z,13.49
2023-01-02T13:01:24.475Z,13.43
2023-01-02T13:03:59.103Z,13.44
2023-01-02T13:06:44.907Z,13.48
2023-01-02T13:09:23.018Z,13.53
2023-01-02T13:12:01.510Z,13.52
2023-01-02T13:14:37.004Z,13.54
2023-01-02T13:17:32.491Z,13.54
2023-01-02T13:20:06.642Z,13.56
2023-01-02T13:22:42.142Z,13.57
2023-01-02T13:25:16.814Z,13.61
2023-01-02T13:27:47.687Z,13.62
2023-01-02T13:30:45.007Z,13.61
2023-01-02T13:33:24.738Z,13.63
2023-01-02T13:35:53.572Z,13.63
2023-01-02T13:38:27.697Z,13.72
2023-01-02T13:40:58.655Z,13.79
2023-01-02T13:43:31.945Z,13.86
2023-01-02T13:46:01.468Z,13.85
2023-01-02T13:48:48.311Z,13.98
2023-01-02T13:51:22.832Z,14.08
2023-01-02T13:53:52.843Z,14.21
2023-01-02T13:56:24.142Z,14.36
2023-01-02T13:59:00.104Z,14.52
2023-01-02T14:02:04.524Z,14.62
2023-01-02T14:04:42.327Z,14.73
2023-01-02T14:07:49.648Z,14.73
2023-01-02T14:10:36.588Z,14.74
2023-01-02T14:13:10.288Z,14.82
2023-01-02T14:16:14.136Z,14.90
2023-01-02T14:18:46.577Z,14.93
2023-01-02T14:21:21.094Z,14.96
2023-01-02T14:24:16.060Z,14.93
2023-01-02T14:26:43.158Z,14.84
2023-01-02T14:29:17.514Z,14.87
2023-01-02T14:31:48.100Z,14.93
2023-01-02T14:34:25.795Z,15.05
2023-01-02T14:36:58.807Z,15.25
2023-01-02T14:39:30.662Z,15.55
2023-01-02T14:42:31.779Z,15.91
2023-01-02T14:45:06.836Z,15.66
2023-01-02T14:47:39.178Z,15.75
2023-01-02T14:50:14.967Z,16.31
2023-01-02T14:52:48.562Z,16.69
2023-01-02T14:55:20.282Z,17.10
2023-01-02T14:57:50.407Z,17.74
2023-01-02T15:00:25.266Z,18.49
2023-01-02T15:02:59.617Z,19.40
2023-01-02T15:05:36.831Z,20.31
2023-01-02T15:08:12.267Z,20.56
2023-01-02T15:10:56.644Z,20.47
2023-01-02T15:13:27.495Z,20.41
2023-01-02T15:16:01.254Z,20.06
2023-01-02T15:18:33.370Z,19.65
2023-01-02T15:21:08.843Z,19.36
2023-01-02T15:23:45.463Z,19.12
2023-01-02T15:26:34.331Z,18.67
2023-01-02T15:29:05.241Z,18.42
2023-01-02T15:31:34.225Z,18.23
2023-01-02T15:34:03.176Z,18.14
2023-01-02T15:36:38.992Z,18.20
2023-01-02T15:39:17.178Z,18.27
2023-01-02T15:41:50.437Z,18.20
2023-01-02T15:44:41.521Z,18.05
2023-01-02T15:47:11.987Z,17.73
2023-01-02T15:49:44.349Z,17.41
2023-01-02T15:52:23.910Z,17.07
2023-01-02T15:54:55.785Z,16.73
2023-01-02T15:57:32.159Z,16.39
2023-01-02T16:00:03.296Z,16.10
2023-01-02T16:02:43.548Z,15.80
2023-01-02T16:05:15.647Z,15.56
2023-01-02T16:07:52.736Z,15.34
2023-01-02T16:10:26.131Z,15.14
2023-01-02T16:12:57.690Z,14.94
2023-01-02T16:15:30.456Z,14.78
2023-01-02T16:17:59.453Z,14.60
2023-01-02T16:20:29.839Z,14.43
2023-01-02T16:23:01.717Z,14.23
2023-01-02T16:25:34.671Z,14.05
2023-01-02T16:28:35.964Z,13.85
2023-01-02T16:31:14.597Z,13.61
2023-01-02T16:33:43.522Z,13.43
2023-01-02T16:36:22.814Z,13.25
2023-01-02T16:38:54.907Z,13.12
2023-01-02T16:42:22.994Z,12.94
2023-01-02T16:44:56.495Z,12.71
2023-01-02T16:47:26.182Z,12.56
2023-01-02T16:49:54.695Z,12.41
2023-01-02T16:52:22.932Z,12.26
2023-01-02T16:54:54.246Z,12.15
2023-01-02T16:57:33.444Z,11.97
2023-01-02T17:02:49.461Z,11.65
2023-01-02T17:05:21.622Z,11.49
2023-01-02T17:07:49.943Z,11.34
2023-01-02T17:10:17.996Z,11.18
2023-01-02T17:12:46.093Z,11.08
2023-01-02T17:15:17.225Z,10.95
2023-01-02T17:17:45.387Z,10.88
2023-01-02T17:20:14.486Z,10.76
2023-01-02T17:22:43.452Z,10.64
2023-01-02T17:25:15.180Z,10.49
2023-01-02T17:27:44.147Z,10.41
2023-01-02T17:30:14.254Z,10.30
2023-01-02T17:32:45.104Z,10.21
2023-01-02T17:35:13.948Z,10.13
2023-01-02T17:37:44.631Z,10.06
2023-01-02T17:40:14.727Z,10.01
2023-01-02T17:42:42.915Z,9.95
2023-01-02T17:45:12.463Z,9.87
2023-01-02T17:50:30.918Z,9.71
2023-01-02T17:52:59.986Z,9.66
2023-01-02T17:55:28.242Z,9.63
2023-01-02T17:57:56.584Z,9.57
2023-01-02T18:00:24.851Z,9.52
2023-01-02T18:02:53.760Z,9.43
2023-01-02T18:05:23.424Z,9.38
2023-01-02T18:07:53.084Z,9.33
2023-01-02T18:10:22.304Z,9.32
2023-01-02T18:12:52.922Z,9.31
2023-01-02T18:15:23.507Z,9.32
2023-01-02T18:17:51.860Z,9.32
2023-01-02T18:20:22.986Z,9.30
2023-01-02T18:22:52.716Z,9.31
2023-01-02T18:25:24.579Z,9.34
2023-01-02T18:27:54.362Z,9.37
2023-01-02T18:30:25.098Z,9.34
2023-01-02T18:33:04.150Z,9.30
2023-01-02T18:35:56.896Z,9.33
2023-01-02T18:38:33.240Z,9.38
2023-01-02T18:41:01.722Z,9.43
2023-01-02T18:43:35.983Z,9.48
2023-01-02T18:46:16.497Z,9.51
2023-01-02T18:48:45.004Z,9.57
2023-01-02T18:51:18.949Z,9.60
2023-01-02T18:53:59.255Z,9.61
2023-01-02T18:56:32.394Z,9.64
2023-01-02T18:59:04.610Z,9.64
2023-01-02T19:01:37.070Z,9.65
2023-01-02T19:04:29.059Z,9.72
2023-01-02T19:07:00.803Z,9.76
2023-01-02T19:09:33.129Z,9.77
2023-01-02T19:12:36.182Z,9.80
2023-01-02T19:15:37.111Z,9.85
2023-01-02T19:18:26.796Z,9.86
2023-01-02T19:21:00.585Z,9.86
2023-01-02T19:23:31.532Z,9.87
2023-01-02T19:26:19.799Z,9.86
2023-01-02T19:28:56.849Z,9.84
2023-01-02T19:31:25.688Z,9.84
2023-01-02T19:34:00.644Z,9.82
2023-01-02T19:36:40.302Z,9.79
2023-01-02T19:39:27.204Z,9.78
2023-01-02T19:42:29.164Z,9.72
2023-01-02T19:44:58.984Z,9.67
2023-01-02T19:47:29.506Z,9.66
2023-01-02T19:49:58.607Z,9.63
2023-01-02T19:52:28.523Z,9.61
2023-01-02T19:54:57.307Z,9.60
2023-01-02T19:57:27.524Z,9.61
2023-01-02T19:59:57.349Z,9.68
2023-01-02T20:02:26.594Z,9.77
2023-01-02T20:04:56.554Z,9.84
2023-01-02T20:07:25.984Z,9.94
2023-01-02T20:09:54.546Z,10.03
2023-01-02T20:12:35.328Z,10.11
2023-01-02T20:15:10.154Z,10.18
2023-01-02T20:17:39.964Z,10.27
2023-01-02T20:20:11.120Z,10.35
2023-01-02T20:22:39.327Z,10.42
2023-01-02T20:25:08.750Z,10.49
2023-01-02T20:27:39.608Z,10.56
2023-01-02T20:30:10.957Z,10.61
2023-01-02T20:32:39.287Z,10.69
2023-01-02T20:35:09.350Z,10.71
2023-01-02T20:37:37.884Z,10.75
2023-01-02T20:40:07.744Z,10.79
2023-01-02T20:42:37.227Z,10.86
2023-01-02T20:45:06.793Z,10.92
2023-01-02T20:47:38.217Z,10.99
2023-01-02T20:50:17.129Z,11.07
2023-01-02T20:52:47.729Z,11.12
2023-01-02T20:55:18.137Z,11.17
2023-01-02T20:57:48.528Z,11.21
2023-01-02T21:00:20.596Z,11.27
2023-01-02T21:02:50.808Z,11.32
2023-01-02T21:05:19.762Z,11.33
2023-01-02T21:07:47.857Z,11.36
2023-01-02T21:10:17.207Z,11.39
2023-01-02T21:13:03.507Z,11.41
2023-01-02T21:15:46.674Z,11.44
2023-01-02T21:18:25.511Z,11.44
2023-01-02T21:20:57.781Z,11.45
2023-01-02T21:23:28.065Z,11.47
2023-01-02T21:25:57.499Z,11.48
2023-01-02T21:28:27.024Z,11.48
2023-01-02T21:30:55.627Z,11.49
2023-01-02T21:33:27.496Z,11.48
2023-01-02T21:35:57.827Z,11.46
2023-01-02T21:38:27.696Z,11.44
2023-01-02T21:41:18.117Z,11.42
2023-01-02T21:43:50.501Z,11.39
2023-01-02T21:46:19.925Z,11.37
2023-01-02T21:48:50.347Z,11.29
2023-01-02T21:51:19.644Z,11.22
2023-01-02T21:53:48.311Z,11.20
2023-01-02T21:56:18.413Z,11.14
2023-01-02T21:58:47.413Z,11.11
2023-01-02T22:01:16.141Z,11.05
2023-01-02T22:03:45.611Z,10.99
2023-01-02T22:06:15.623Z,10.94
2023-01-02T22:08:44.311Z,10.90
2023-01-02T22:11:29.775Z,10.87
2023-01-02T22:13:57.853Z,10.79
2023-01-02T22:16:26.958Z,10.74
2023-01-02T22:18:55.156Z,10.72
2023-01-02T22:21:25.248Z,10.70
2023-01-02T22:23:53.621Z,10.68
2023-01-02T22:26:22.351Z,10.63
2023-01-02T22:28:50.802Z,10.62
2023-01-02T22:31:19.606Z,10.60
2023-01-02T22:36:32.588Z,10.56
2023-01-02T22:42:57.541Z,10.52
2023-01-02T22:45:09.866Z,10.54
2023-01-02T22:47:39.720Z,10.50
2023-01-02T22:50:12.419Z,10.50
2023-01-02T22:52:42.328Z,10.52
2023-01-02T22:55:17.610Z,10.55
2023-01-02T22:57:52.542Z,10.54
2023-01-02T23:00:23.864Z,10.55
2023-01-02T23:02:52.745Z,10.55
2023-01-02T23:05:24.030Z,10.52
2023-01-02T23:07:54.257Z,10.54
2023-01-02T23:10:22.600Z,10.54
2023-01-02T23:12:54.146Z,10.55
2023-01-02T23:15:24.594Z,10.56
2023-01-02T23:18:08.560Z,10.59
2023-01-02T23:20:38.093Z,10.61
2023-01-02T23:23:10.088Z,10.60
2023-01-02T23:25:50.245Z,10.62
2023-01-02T23:28:39.344Z,10.62
2023-01-02T23:31:06.877Z,10.65
2023-01-02T23:33:35.035Z,10.67
2023-01-02T23:36:03.415Z,10.66
2023-01-02T23:38:34.443Z,10.71
2023-01-02T23:41:03.202Z,10.73
2023-01-02T23:43:31.420Z,10.75
2023-01-02T23:46:00.209Z,10.76
2023-01-02T23:48:28.489Z,10.73
2023-01-02T23:51:00.029Z,10.75
2023-01-02T23:53:28.947Z,10.77
2023-01-02T23:55:59.472Z,10.76
2023-01-02T23:58:27.649Z,10.79
